sensor_id;sensor_type;location;lat;lon;timestamp;pressure;altitude;pressure_sealevel;temperature;humidity
21240;BME280;10778;48.962;9.018;2023-02-16T00:01:42;100211.69;;;-3.30;100.00
21240;BME280;10778;48.962;9.018;2023-02-16T00:04:17;100212.66;;;-3.37;100.00
21240;BME280;10778;48.962;9.018;2023-02-16T00:06:45;100215.25;;;-3.38;100.00
21240;BME280;10778;48.962;9.018;2023-02-16T00:09:11;100206.59;;;-3.34;100.00
21240;BME280;10778;48.962;9.018;2023-02-16T00:11:37;100204.84;;;-3.31;100.00
21240;BME280;10778;48.962;9.018;2023-02-16T00:14:22;100208.22;;;-3.27;100.00
21240;BME280;10778;48.962;9.018;2023-02-16T00:16:55;100208.19;;;-3.24;100.00
21240;BME280;10778;48.962;9.018;2023-02-16T00:19:39;100214.19;;;-3.23;100.00
21240;BME280;10778;48.962;9.018;2023-02-16T00:22:06;100207.34;;;-3.26;100.00
21240;BME280;10778;48.962;9.018;2023-02-16T00:24:33;100205.72;;;-3.32;100.00
21240;BME280;10778;48.962;9.018;2023-02-16T00:26:59;100206.59;;;-3.33;100.00
21240;BME280;10778;48.962;9.018;2023-02-16T00:29:26;100208.28;;;-3.32;100.00
21240;BME280;10778;48.962;9.018;2023-02-16T00:31:54;100203.25;;;-3.39;100.00
21240;BME280;10778;48.962;9.018;2023-02-16T00:36:54;100213.84;;;-3.61;100.00
21240;BME280;10778;48.962;9.018;2023-02-16T00:39:22;100218.13;;;-3.60;100.00
21240;BME280;10778;48.962;9.018;2023-02-16T00:41:51;100207.78;;;-3.55;100.00
21240;BME280;10778;48.962;9.018;2023-02-16T00:44:25;100197.44;;;-3.51;100.00
21240;BME280;10778;48.962;9.018;2023-02-16T00:46:52;100205.22;;;-3.55;100.00
21240;BME280;10778;48.962;9.018;2023-02-16T00:49:20;100201.81;;;-3.58;100.00
21240;BME280;10778;48.962;9.018;2023-02-16T00:51:48;100194.97;;;-3.62;100.00
21240;BME280;10778;48.962;9.018;2023-02-16T00:54:14;100201.81;;;-3.58;100.00
21240;BME280;10778;48.962;9.018;2023-02-16T00:56:42;100197.44;;;-3.54;100.00
21240;BME280;10778;48.962;9.018;2023-02-16T00:59:13;100194.00;;;-3.50;100.00
21240;BME280;10778;48.962;9.018;2023-02-16T01:01:41;100193.13;;;-3.49;100.00
21240;BME280;10778;48.962;9.018;2023-02-16T01:04:10;100198.25;;;-3.49;100.00
21240;BME280;10778;48.962;9.018;2023-02-16T01:06:39;100206.84;;;-3.50;100.00
21240;BME280;10778;48.962;9.018;2023-02-16T01:09:23;100202.69;;;-3.60;100.00
21240;BME280;10778;48.962;9.018;2023-02-16T01:12:13;100206.13;;;-3.61;100.00
21240;BME280;10778;48.962;9.018;2023-02-16T01:14:39;100199.19;;;-3.56;100.00
21240;BME280;10778;48.962;9.018;2023-02-16T01:17:05;100196.56;;;-3.53;100.00
21240;BME280;10778;48.962;9.018;2023-02-16T01:19:33;100198.38;;;-3.57;100.00
21240;BME280;10778;48.962;9.018;2023-02-16T01:21:59;100190.66;;;-3.58;100.00
21240;BME280;10778;48.962;9.018;2023-02-16T01:24:27;100182.13;;;-3.60;100.00
21240;BME280;10778;48.962;9.018;2023-02-16T01:26:53;100182.09;;;-3.59;100.00
21240;BME280;10778;48.962;9.018;2023-02-16T01:29:20;100194.22;;;-3.67;100.00
21240;BME280;10778;48.962;9.018;2023-02-16T01:31:48;100195.13;;;-3.71;100.00
21240;BME280;10778;48.962;9.018;2023-02-16T01:34:14;100195.28;;;-3.83;100.00
21240;BME280;10778;48.962;9.018;2023-02-16T01:36:45;100196.09;;;-3.81;100.00
21240;BME280;10778;48.962;9.018;2023-02-16T01:39:13;100198.72;;;-3.84;100.00
21240;BME280;10778;48.962;9.018;2023-02-16T01:47:36;100194.63;;;-4.01;100.00
21240;BME280;10778;48.962;9.018;2023-02-16T01:50:20;100200.66;;;-4.02;100.00
21240;BME280;10778;48.962;9.018;2023-02-16T01:52:53;100189.50;;;-4.03;100.00
21240;BME280;10778;48.962;9.018;2023-02-16T01:55:25;100189.50;;;-4.03;100.00
21240;BME280;10778;48.962;9.018;2023-02-16T01:57:59;100188.72;;;-4.06;100.00
21240;BME280;10778;48.962;9.018;2023-02-16T02:03:21;100181.75;;;-3.98;100.00
21240;BME280;10778;48.962;9.018;2023-02-16T02:06:09;100184.31;;;-3.96;100.00
21240;BME280;10778;48.962;9.018;2023-02-16T02:08:41;100182.59;;;-3.97;100.00
21240;BME280;10778;48.962;9.018;2023-02-16T02:11:21;100185.19;;;-3.97;100.00
21240;BME280;10778;48.962;9.018;2023-02-16T02:14:03;100183.53;;;-4.02;100.00
21240;BME280;10778;48.962;9.018;2023-02-16T02:16:30;100179.22;;;-4.00;100.00
21240;BME280;10778;48.962;9.018;2023-02-16T02:18:58;100176.59;;;-3.98;100.00
21240;BME280;10778;48.962;9.018;2023-02-16T02:27:30;100162.31;;;-4.21;100.00
21240;BME280;10778;48.962;9.018;2023-02-16T02:38:24;100158.09;;;-4.28;100.00
21240;BME280;10778;48.962;9.018;2023-02-16T02:43:47;100157.22;;;-4.24;100.00
21240;BME280;10778;48.962;9.018;2023-02-16T02:48:40;100161.44;;;-4.20;100.00
21240;BME280;10778;48.962;9.018;2023-02-16T02:51:13;100161.50;;;-4.23;100.00
21240;BME280;10778;48.962;9.018;2023-02-16T03:03:00;100155.56;;;-4.30;100.00
21240;BME280;10778;48.962;9.018;2023-02-16T03:05:30;100159.00;;;-4.32;100.00
21240;BME280;10778;48.962;9.018;2023-02-16T03:08:02;100159.03;;;-4.34;100.00
21240;BME280;10778;48.962;9.018;2023-02-16T03:11:01;100163.38;;;-4.39;100.00
21240;BME280;10778;48.962;9.018;2023-02-16T03:13:53;100159.88;;;-4.33;100.00
21240;BME280;10778;48.962;9.018;2023-02-16T03:16:30;100158.13;;;-4.30;100.00
21240;BME280;10778;48.962;9.018;2023-02-16T03:18:57;100154.59;;;-4.22;100.00
21240;BME280;10778;48.962;9.018;2023-02-16T03:21:43;100156.41;;;-4.28;100.00
21240;BME280;10778;48.962;9.018;2023-02-16T03:24:29;100158.91;;;-4.23;100.00
21240;BME280;10778;48.962;9.018;2023-02-16T03:27:18;100152.91;;;-4.22;100.00
21240;BME280;10778;48.962;9.018;2023-02-16T03:30:06;100152.91;;;-4.23;100.00
21240;BME280;10778;48.962;9.018;2023-02-16T03:32:33;100166.59;;;-4.21;100.00
21240;BME280;10778;48.962;9.018;2023-02-16T03:34:59;100158.91;;;-4.23;100.00
21240;BME280;10778;48.962;9.018;2023-02-16T03:37:25;100161.53;;;-4.28;100.00
21240;BME280;10778;48.962;9.018;2023-02-16T03:39:51;100162.34;;;-4.24;100.00
21240;BME280;10778;48.962;9.018;2023-02-16T03:42:36;100156.25;;;-4.15;100.00
21240;BME280;10778;48.962;9.018;2023-02-16T03:45:02;100158.88;;;-4.20;100.00
21240;BME280;10778;48.962;9.018;2023-02-16T03:47:28;100166.59;;;-4.21;100.00
21240;BME280;10778;48.962;9.018;2023-02-16T03:49:54;100164.06;;;-4.24;100.00
21240;BME280;10778;48.962;9.018;2023-02-16T03:52:20;100158.97;;;-4.28;100.00
21240;BME280;10778;48.962;9.018;2023-02-16T03:54:46;100156.41;;;-4.29;100.00
21240;BME280;10778;48.962;9.018;2023-02-16T03:57:12;100161.53;;;-4.28;100.00
21240;BME280;10778;48.962;9.018;2023-02-16T03:59:38;100155.59;;;-4.33;100.00
21240;BME280;10778;48.962;9.018;2023-02-16T04:02:04;100163.34;;;-4.36;100.00
21240;BME280;10778;48.962;9.018;2023-02-16T04:04:30;100156.56;;;-4.43;100.00
21240;BME280;10778;48.962;9.018;2023-02-16T04:06:56;100153.91;;;-4.37;100.00
21240;BME280;10778;48.962;9.018;2023-02-16T04:09:22;100165.94;;;-4.37;100.00
21240;BME280;10778;48.962;9.018;2023-02-16T04:11:48;100172.06;;;-4.49;100.00
21240;BME280;10778;48.962;9.018;2023-02-16T04:14:33;100168.63;;;-4.48;100.00
21240;BME280;10778;48.962;9.018;2023-02-16T04:16:59;100169.47;;;-4.51;100.00
21240;BME280;10778;48.962;9.018;2023-02-16T04:19:25;100172.09;;;-4.52;100.00
21240;BME280;10778;48.962;9.018;2023-02-16T04:21:51;100165.25;;;-4.55;100.00
21240;BME280;10778;48.962;9.018;2023-02-16T04:24:17;100175.53;;;-4.55;100.00
21240;BME280;10778;48.962;9.018;2023-02-16T04:26:43;100174.72;;;-4.60;100.00
21240;BME280;10778;48.962;9.018;2023-02-16T04:29:10;100176.44;;;-4.62;100.00
21240;BME280;10778;48.962;9.018;2023-02-16T04:31:36;100178.16;;;-4.61;100.00
21240;BME280;10778;48.962;9.018;2023-02-16T04:34:02;100177.34;;;-4.65;100.00
21240;BME280;10778;48.962;9.018;2023-02-16T04:36:28;100181.69;;;-4.70;100.00
21240;BME280;10778;48.962;9.018;2023-02-16T04:38:54;100175.63;;;-4.66;100.00
21240;BME280;10778;48.962;9.018;2023-02-16T04:41:20;100172.25;;;-4.68;100.00
21240;BME280;10778;48.962;9.018;2023-02-16T04:43:46;100173.06;;;-4.67;100.00
21240;BME280;10778;48.962;9.018;2023-02-16T04:46:12;100170.69;;;-4.84;100.00
21240;BME280;10778;48.962;9.018;2023-02-16T04:48:38;100178.31;;;-4.80;100.00
21240;BME280;10778;48.962;9.018;2023-02-16T04:51:04;100182.66;;;-4.83;100.00
21240;BME280;10778;48.962;9.018;2023-02-16T04:53:30;100175.81;;;-4.86;100.00
21240;BME280;10778;48.962;9.018;2023-02-16T04:55:56;100173.22;;;-4.83;100.00
21240;BME280;10778;48.962;9.018;2023-02-16T04:58:22;100182.75;;;-4.94;100.00
21240;BME280;10778;48.962;9.018;2023-02-16T05:00:48;100183.63;;;-4.97;100.00
21240;BME280;10778;48.962;9.018;2023-02-16T05:03:15;100169.91;;;-4.96;100.00
21240;BME280;10778;48.962;9.018;2023-02-16T05:05:41;100187.06;;;-5.01;100.00
21240;BME280;10778;48.962;9.018;2023-02-16T05:08:07;100174.25;;;-5.01;100.00
21240;BME280;10778;48.962;9.018;2023-02-16T05:10:33;100185.28;;;-4.93;100.00
21240;BME280;10778;48.962;9.018;2023-02-16T05:12:59;100178.34;;;-4.83;100.00
21240;BME280;10778;48.962;9.018;2023-02-16T05:15:43;100185.28;;;-4.91;100.00
21240;BME280;10778;48.962;9.018;2023-02-16T05:18:10;100177.66;;;-4.99;100.00
21240;BME280;10778;48.962;9.018;2023-02-16T05:20:36;100174.28;;;-5.06;100.00
21240;BME280;10778;48.962;9.018;2023-02-16T05:23:20;100178.56;;;-5.09;100.00
21240;BME280;10778;48.962;9.018;2023-02-16T05:25:46;100172.56;;;-5.08;100.00
21240;BME280;10778;48.962;9.018;2023-02-16T05:28:12;100166.56;;;-5.04;100.00
21240;BME280;10778;48.962;9.018;2023-02-16T05:30:38;100166.47;;;-4.96;100.00
21240;BME280;10778;48.962;9.018;2023-02-16T05:33:04;100181.03;;;-4.98;100.00
21240;BME280;10778;48.962;9.018;2023-02-16T05:35:32;100181.09;;;-5.05;100.00
21240;BME280;10778;48.962;9.018;2023-02-16T05:37:58;100181.97;;;-5.07;100.00
21240;BME280;10778;48.962;9.018;2023-02-16T05:40:24;100184.44;;;-4.96;100.00
21240;BME280;10778;48.962;9.018;2023-02-16T05:42:54;100174.13;;;-4.89;100.00
21240;BME280;10778;48.962;9.018;2023-02-16T05:45:20;100186.13;;;-4.88;100.00
21240;BME280;10778;48.962;9.018;2023-02-16T05:47:46;100195.53;;;-4.88;100.00
21240;BME280;10778;48.962;9.018;2023-02-16T05:50:12;100183.75;;;-3.56;100.00
21240;BME280;10778;48.962;9.018;2023-02-16T05:52:38;100186.72;;;-3.23;100.00
21240;BME280;10778;48.962;9.018;2023-02-16T05:55:04;100193.09;;;-2.42;100.00
21240;BME280;10778;48.962;9.018;2023-02-16T05:57:30;100188.38;;;-2.67;100.00
21240;BME280;10778;48.962;9.018;2023-02-16T05:59:59;100194.00;;;-2.95;100.00
21240;BME280;10778;48.962;9.018;2023-02-16T06:02:25;100199.13;;;-2.43;100.00
21240;BME280;10778;48.962;9.018;2023-02-16T06:04:51;100194.09;;;-1.61;100.00
21240;BME280;10778;48.962;9.018;2023-02-16T06:07:18;100193.53;;;-1.36;98.49
21240;BME280;10778;48.962;9.018;2023-02-16T06:09:44;100192.53;;;-0.93;96.06
21240;BME280;10778;48.962;9.018;2023-02-16T06:12:10;100196.72;;;-1.64;90.22
21240;BME280;10778;48.962;9.018;2023-02-16T06:14:36;100191.75;;;-1.34;92.13
21240;BME280;10778;48.962;9.018;2023-02-16T06:17:02;100201.75;;;-2.01;87.44
21240;BME280;10778;48.962;9.018;2023-02-16T06:19:28;100212.66;;;-2.80;91.68
21240;BME280;10778;48.962;9.018;2023-02-16T06:21:54;100214.44;;;-2.86;92.23
21240;BME280;10778;48.962;9.018;2023-02-16T06:24:20;100210.56;;;-2.11;93.34
21240;BME280;10778;48.962;9.018;2023-02-16T06:26:46;100216.69;;;-2.65;91.44
21240;BME280;10778;48.962;9.018;2023-02-16T06:29:12;100212.09;;;-2.48;93.80
21240;BME280;10778;48.962;9.018;2023-02-16T06:31:38;100208.97;;;-2.64;92.57
21240;BME280;10778;48.962;9.018;2023-02-16T06:34:04;100210.59;;;-2.14;91.18
21240;BME280;10778;48.962;9.018;2023-02-16T06:36:30;100196.72;;;-1.64;93.33
21240;BME280;10778;48.962;9.018;2023-02-16T06:38:56;100211.41;;;-2.56;89.35
21240;BME280;10778;48.962;9.018;2023-02-16T06:41:22;100215.69;;;-3.08;90.48
21240;BME280;10778;48.962;9.018;2023-02-16T06:44:10;100209.97;;;-2.74;92.45
21240;BME280;10778;48.962;9.018;2023-02-16T06:46:40;100211.41;;;-2.58;92.66
21240;BME280;10778;48.962;9.018;2023-02-16T06:49:06;100210.47;;;-2.52;94.71
21240;BME280;10778;48.962;9.018;2023-02-16T06:51:32;100222.47;;;-3.04;90.28
21240;BME280;10778;48.962;9.018;2023-02-16T06:53:58;100213.66;;;-2.89;91.06
21240;BME280;10778;48.962;9.018;2023-02-16T06:56:24;100225.63;;;-3.45;93.46
21240;BME280;10778;48.962;9.018;2023-02-16T06:58:51;100223.63;;;-3.24;94.91
21240;BME280;10778;48.962;9.018;2023-02-16T07:01:17;100215.00;;;-2.68;94.72
21240;BME280;10778;48.962;9.018;2023-02-16T07:03:49;100219.22;;;-3.16;92.41
21240;BME280;10778;48.962;9.018;2023-02-16T07:06:15;100226.56;;;-3.52;93.16
21240;BME280;10778;48.962;9.018;2023-02-16T07:08:41;100239.06;;;-3.91;95.07
21240;BME280;10778;48.962;9.018;2023-02-16T07:11:07;100235.69;;;-3.93;96.35
21240;BME280;10778;48.962;9.018;2023-02-16T07:13:33;100230.72;;;-3.40;97.06
21240;BME280;10778;48.962;9.018;2023-02-16T07:16:02;100229.09;;;-2.37;91.85
21240;BME280;10778;48.962;9.018;2023-02-16T07:18:29;100227.28;;;-1.87;88.95
21240;BME280;10778;48.962;9.018;2023-02-16T07:20:55;100225.31;;;-1.75;87.82
21240;BME280;10778;48.962;9.018;2023-02-16T07:23:21;100222.34;;;-1.55;86.09
21240;BME280;10778;48.962;9.018;2023-02-16T07:25:47;100217.25;;;-0.48;82.81
21240;BME280;10778;48.962;9.018;2023-02-16T07:28:13;100213.59;;;0.81;76.03
21240;BME280;10778;48.962;9.018;2023-02-16T07:30:39;100209.19;;;1.37;74.03
21240;BME280;10778;48.962;9.018;2023-02-16T07:33:05;100211.00;;;1.86;70.48
21240;BME280;10778;48.962;9.018;2023-02-16T07:35:36;100212.31;;;2.68;69.85
21240;BME280;10778;48.962;9.018;2023-02-16T07:38:03;100214.41;;;2.80;68.26
21240;BME280;10778;48.962;9.018;2023-02-16T07:40:29;100220.97;;;3.11;66.29
21240;BME280;10778;48.962;9.018;2023-02-16T07:43:00;100218.13;;;3.80;62.91
21240;BME280;10778;48.962;9.018;2023-02-16T07:45:27;100219.25;;;4.52;61.18
21240;BME280;10778;48.962;9.018;2023-02-16T07:47:53;100224.63;;;4.30;61.09
21240;BME280;10778;48.962;9.018;2023-02-16T07:50:19;100221.16;;;4.30;62.33
21240;BME280;10778;48.962;9.018;2023-02-16T07:52:45;100204.69;;;5.39;59.61
21240;BME280;10778;48.962;9.018;2023-02-16T07:55:11;100217.69;;;5.22;58.59
21240;BME280;10778;48.962;9.018;2023-02-16T07:57:38;100217.22;;;5.66;56.90
21240;BME280;10778;48.962;9.018;2023-02-16T08:00:08;100220.25;;;5.41;58.71
21240;BME280;10778;48.962;9.018;2023-02-16T08:02:40;100227.50;;;4.99;60.30
21240;BME280;10778;48.962;9.018;2023-02-16T08:05:06;100216.66;;;5.95;58.07
21240;BME280;10778;48.962;9.018;2023-02-16T08:07:32;100209.56;;;6.31;57.50
21240;BME280;10778;48.962;9.018;2023-02-16T08:09:58;100212.00;;;6.82;56.12
21240;BME280;10778;48.962;9.018;2023-02-16T08:12:25;100220.44;;;5.72;58.65
21240;BME280;10778;48.962;9.018;2023-02-16T08:14:52;100210.22;;;6.02;59.81
21240;BME280;10778;48.962;9.018;2023-02-16T08:17:18;100222.59;;;6.15;59.76
21240;BME280;10778;48.962;9.018;2023-02-16T08:19:45;100215.56;;;6.49;60.10
21240;BME280;10778;48.962;9.018;2023-02-16T08:22:11;100208.94;;;7.06;57.62
21240;BME280;10778;48.962;9.018;2023-02-16T08:24:37;100211.00;;;7.31;57.10
21240;BME280;10778;48.962;9.018;2023-02-16T08:27:04;100219.34;;;6.91;57.72
21240;BME280;10778;48.962;9.018;2023-02-16T08:29:31;100214.41;;;8.49;55.52
21240;BME280;10778;48.962;9.018;2023-02-16T08:31:58;100215.47;;;7.74;58.55
21240;BME280;10778;48.962;9.018;2023-02-16T08:34:25;100206.34;;;8.38;56.00
21240;BME280;10778;48.962;9.018;2023-02-16T08:36:53;100214.97;;;8.54;55.99
21240;BME280;10778;48.962;9.018;2023-02-16T08:39:23;100206.34;;;8.52;56.45
21240;BME280;10778;48.962;9.018;2023-02-16T08:41:51;100213.75;;;8.60;56.44
21240;BME280;10778;48.962;9.018;2023-02-16T08:44:19;100203.19;;;9.02;56.12
21240;BME280;10778;48.962;9.018;2023-02-16T08:46:47;100211.13;;;8.46;56.55
21240;BME280;10778;48.962;9.018;2023-02-16T08:49:16;100207.19;;;8.53;57.39
21240;BME280;10778;48.962;9.018;2023-02-16T08:51:46;100200.72;;;9.27;57.41
21240;BME280;10778;48.962;9.018;2023-02-16T08:54:18;100209.06;;;9.85;54.93
21240;BME280;10778;48.962;9.018;2023-02-16T08:56:45;100204.00;;;10.08;56.54
21240;BME280;10778;48.962;9.018;2023-02-16T08:59:17;100195.06;;;9.98;54.89
21240;BME280;10778;48.962;9.018;2023-02-16T09:01:44;100199.59;;;10.83;54.19
21240;BME280;10778;48.962;9.018;2023-02-16T09:04:10;100206.38;;;10.37;53.50
21240;BME280;10778;48.962;9.018;2023-02-16T09:06:40;100203.63;;;11.36;52.26
21240;BME280;10778;48.962;9.018;2023-02-16T09:09:07;100207.59;;;11.06;52.67
21240;BME280;10778;48.962;9.018;2023-02-16T09:11:34;100200.31;;;11.57;52.53
21240;BME280;10778;48.962;9.018;2023-02-16T09:14:00;100198.72;;;10.58;54.00
21240;BME280;10778;48.962;9.018;2023-02-16T09:16:27;100197.38;;;11.01;52.96
21240;BME280;10778;48.962;9.018;2023-02-16T09:18:59;100193.59;;;11.05;53.61
21240;BME280;10778;48.962;9.018;2023-02-16T09:21:30;100201.09;;;10.99;54.00
21240;BME280;10778;48.962;9.018;2023-02-16T09:23:59;100198.94;;;11.28;54.87
21240;BME280;10778;48.962;9.018;2023-02-16T09:26:30;100183.16;;;11.40;53.87
21240;BME280;10778;48.962;9.018;2023-02-16T09:28:56;100188.75;;;12.16;53.17
21240;BME280;10778;48.962;9.018;2023-02-16T09:31:25;100185.84;;;12.42;52.03
21240;BME280;10778;48.962;9.018;2023-02-16T09:33:57;100182.81;;;13.12;51.60
21240;BME280;10778;48.962;9.018;2023-02-16T09:36:24;100170.47;;;13.55;50.32
21240;BME280;10778;48.962;9.018;2023-02-16T09:38:51;100187.28;;;13.12;51.11
21240;BME280;10778;48.962;9.018;2023-02-16T09:43:55;100177.00;;;13.40;50.91
21240;BME280;10778;48.962;9.018;2023-02-16T09:46:24;100182.59;;;12.27;52.55
21240;BME280;10778;48.962;9.018;2023-02-16T09:48:50;100177.63;;;12.57;52.85
21240;BME280;10778;48.962;9.018;2023-02-16T09:51:24;100178.03;;;12.73;52.02
21240;BME280;10778;48.962;9.018;2023-02-16T09:56:45;100172.50;;;12.32;53.57
21240;BME280;10778;48.962;9.018;2023-02-16T09:59:32;100170.16;;;12.18;52.97
21240;BME280;10778;48.962;9.018;2023-02-16T10:02:23;100173.84;;;11.11;56.83
21240;BME280;10778;48.962;9.018;2023-02-16T10:08:15;100162.72;;;13.42;53.55
21240;BME280;10778;48.962;9.018;2023-02-16T10:10:48;100164.91;;;12.62;54.53
21240;BME280;10778;48.962;9.018;2023-02-16T10:13:36;100157.00;;;13.68;52.69
21240;BME280;10778;48.962;9.018;2023-02-16T10:16:11;100176.13;;;13.08;54.60
21240;BME280;10778;48.962;9.018;2023-02-16T10:18:44;100173.56;;;13.39;53.65
21240;BME280;10778;48.962;9.018;2023-02-16T10:21:17;100167.25;;;12.76;54.84
21240;BME280;10778;48.962;9.018;2023-02-16T10:23:50;100168.25;;;13.18;54.40
21240;BME280;10778;48.962;9.018;2023-02-16T10:26:36;100163.09;;;13.16;54.29
21240;BME280;10778;48.962;9.018;2023-02-16T10:29:13;100170.22;;;12.39;56.56
21240;BME280;10778;48.962;9.018;2023-02-16T10:37:45;100157.13;;;13.57;54.32
21240;BME280;10778;48.962;9.018;2023-02-16T10:40:26;100157.94;;;13.57;53.14
21240;BME280;10778;48.962;9.018;2023-02-16T10:43:04;100148.56;;;14.15;52.60
21240;BME280;10778;48.962;9.018;2023-02-16T10:45:42;100146.75;;;13.75;53.33
21240;BME280;10778;48.962;9.018;2023-02-16T10:48:11;100148.97;;;13.70;53.76
21240;BME280;10778;48.962;9.018;2023-02-16T10:50:45;100142.03;;;14.19;53.42
21240;BME280;10778;48.962;9.018;2023-02-16T10:53:20;100137.97;;;13.64;54.43
21240;BME280;10778;48.962;9.018;2023-02-16T10:55:49;100139.38;;;14.10;53.35
21240;BME280;10778;48.962;9.018;2023-02-16T10:58:23;100135.13;;;14.68;51.53
21240;BME280;10778;48.962;9.018;2023-02-16T11:03:39;100131.59;;;14.28;51.67
21240;BME280;10778;48.962;9.018;2023-02-16T11:06:18;100127.00;;;15.28;50.14
21240;BME280;10778;48.962;9.018;2023-02-16T11:08:51;100128.56;;;15.11;49.98
21240;BME280;10778;48.962;9.018;2023-02-16T11:11:19;100131.88;;;14.25;52.84
21240;BME280;10778;48.962;9.018;2023-02-16T11:13:48;100131.56;;;14.08;52.81
21240;BME280;10778;48.962;9.018;2023-02-16T11:16:20;100132.13;;;14.12;53.21
21240;BME280;10778;48.962;9.018;2023-02-16T11:19:16;100130.78;;;14.37;51.78
21240;BME280;10778;48.962;9.018;2023-02-16T11:24:29;100115.97;;;13.74;53.39
21240;BME280;10778;48.962;9.018;2023-02-16T11:27:04;100109.41;;;14.19;51.49
21240;BME280;10778;48.962;9.018;2023-02-16T11:29:30;100110.47;;;14.47;51.47
21240;BME280;10778;48.962;9.018;2023-02-16T11:31:57;100114.22;;;14.45;51.99
21240;BME280;10778;48.962;9.018;2023-02-16T11:34:31;100108.22;;;14.33;52.70
21240;BME280;10778;48.962;9.018;2023-02-16T11:37:12;100095.38;;;14.38;51.28
21240;BME280;10778;48.962;9.018;2023-02-16T11:39:40;100100.91;;;14.05;51.49
21240;BME280;10778;48.962;9.018;2023-02-16T11:42:32;100097.41;;;13.95;50.75
21240;BME280;10778;48.962;9.018;2023-02-16T11:45:03;100095.34;;;13.99;51.26
21240;BME280;10778;48.962;9.018;2023-02-16T11:50:15;100080.47;;;14.57;49.84
21240;BME280;10778;48.962;9.018;2023-02-16T11:52:46;100081.03;;;14.70;48.32
21240;BME280;10778;48.962;9.018;2023-02-16T11:57:46;100075.34;;;14.55;50.34
21240;BME280;10778;48.962;9.018;2023-02-16T12:00:18;100073.66;;;14.84;50.26
21240;BME280;10778;48.962;9.018;2023-02-16T12:09:07;100068.63;;;14.31;51.03
21240;BME280;10778;48.962;9.018;2023-02-16T12:11:36;100052.75;;;14.31;49.77
21240;BME280;10778;48.962;9.018;2023-02-16T12:14:44;100053.84;;;14.29;50.66
21240;BME280;10778;48.962;9.018;2023-02-16T12:20:33;100034.63;;;14.86;50.45
21240;BME280;10778;48.962;9.018;2023-02-16T12:28:49;100018.91;;;14.35;51.29
21240;BME280;10778;48.962;9.018;2023-02-16T12:37:31;100010.53;;;14.40;51.18
21240;BME280;10778;48.962;9.018;2023-02-16T12:42:55;100010.38;;;14.51;50.85
21240;BME280;10778;48.962;9.018;2023-02-16T12:45:31;99998.41;;;14.47;51.26
21240;BME280;10778;48.962;9.018;2023-02-16T12:50:42;99992.44;;;14.35;52.11
21240;BME280;10778;48.962;9.018;2023-02-16T12:55:58;99995.16;;;15.20;50.24
21240;BME280;10778;48.962;9.018;2023-02-16T12:58:29;99984.94;;;15.35;50.70
21240;BME280;10778;48.962;9.018;2023-02-16T13:01:01;99983.25;;;15.34;50.22
21240;BME280;10778;48.962;9.018;2023-02-16T13:03:39;99974.69;;;15.69;50.05
21240;BME280;10778;48.962;9.018;2023-02-16T13:08:54;99965.72;;;14.86;49.60
21240;BME280;10778;48.962;9.018;2023-02-16T13:11:27;99970.41;;;15.02;50.92
21240;BME280;10778;48.962;9.018;2023-02-16T13:13:58;99960.81;;;14.91;50.75
21240;BME280;10778;48.962;9.018;2023-02-16T13:16:35;99956.06;;;14.37;51.22
21240;BME280;10778;48.962;9.018;2023-02-16T13:19:02;99962.19;;;14.28;51.87
21240;BME280;10778;48.962;9.018;2023-02-16T13:21:35;99960.97;;;14.22;51.62
21240;BME280;10778;48.962;9.018;2023-02-16T13:24:20;99957.34;;;14.13;52.47
21240;BME280;10778;48.962;9.018;2023-02-16T13:27:15;99956.50;;;14.03;52.27
21240;BME280;10778;48.962;9.018;2023-02-16T13:30:04;99957.88;;;13.68;54.06
21240;BME280;10778;48.962;9.018;2023-02-16T13:38:43;99956.19;;;13.76;53.12
21240;BME280;10778;48.962;9.018;2023-02-16T13:41:39;99951.31;;;14.41;51.78
21240;BME280;10778;48.962;9.018;2023-02-16T13:44:18;99945.75;;;14.24;51.07
21240;BME280;10778;48.962;9.018;2023-02-16T13:46:48;99951.31;;;14.11;50.46
21240;BME280;10778;48.962;9.018;2023-02-16T13:49:28;99952.47;;;14.18;51.12
21240;BME280;10778;48.962;9.018;2023-02-16T13:51:56;99945.06;;;13.83;51.55
21240;BME280;10778;48.962;9.018;2023-02-16T13:54:36;99947.41;;;13.66;52.13
21240;BME280;10778;48.962;9.018;2023-02-16T13:57:10;99945.63;;;14.06;51.06
21240;BME280;10778;48.962;9.018;2023-02-16T14:02:09;99948.56;;;14.13;51.32
21240;BME280;10778;48.962;9.018;2023-02-16T14:16:53;99957.78;;;12.97;52.69
21240;BME280;10778;48.962;9.018;2023-02-16T14:19:24;99942.22;;;13.04;52.43
21240;BME280;10778;48.962;9.018;2023-02-16T14:21:51;99947.91;;;12.99;52.30
21240;BME280;10778;48.962;9.018;2023-02-16T14:24:32;99948.59;;;13.01;52.31
21240;BME280;10778;48.962;9.018;2023-02-16T14:27:08;99956.22;;;12.94;52.99
21240;BME280;10778;48.962;9.018;2023-02-16T14:29:52;99956.84;;;13.08;52.29
21240;BME280;10778;48.962;9.018;2023-02-16T14:32:28;99956.22;;;12.94;52.34
21240;BME280;10778;48.962;9.018;2023-02-16T14:35:20;99961.44;;;13.16;51.00
21240;BME280;10778;48.962;9.018;2023-02-16T14:40:57;99948.91;;;13.08;51.34
21240;BME280;10778;48.962;9.018;2023-02-16T14:43:25;99953.22;;;13.09;51.29
21240;BME280;10778;48.962;9.018;2023-02-16T14:52:44;99944.16;;;13.02;52.21
21240;BME280;10778;48.962;9.018;2023-02-16T15:00:44;99954.41;;;12.64;53.31
21240;BME280;10778;48.962;9.018;2023-02-16T15:05:52;99955.63;;;12.38;54.79
21240;BME280;10778;48.962;9.018;2023-02-16T15:08:25;99951.19;;;12.39;54.00
21240;BME280;10778;48.962;9.018;2023-02-16T15:11:23;99944.00;;;12.41;53.58
21240;BME280;10778;48.962;9.018;2023-02-16T15:13:48;99933.03;;;12.46;53.97
21240;BME280;10778;48.962;9.018;2023-02-16T15:16:19;99942.13;;;12.32;53.44
21240;BME280;10778;48.962;9.018;2023-02-16T15:18:49;99939.91;;;12.37;53.32
21240;BME280;10778;48.962;9.018;2023-02-16T15:21:26;99928.66;;;12.35;54.81
21240;BME280;10778;48.962;9.018;2023-02-16T15:23:55;99920.03;;;12.33;53.88